Time;durP1;ratioP1;P1;durP2;ratioP2;P2;SDS_P1;SDS_P2;PMS_P1;PMS_P2;Temp;Humidity;BMP_temperature;BMP_pressure;BME280_temperature;BME280_humidity;BME280_pressure;Samples;Min_cycle;Max_cycle;Signal;HPM_P1;HPM_P2
2023/09/29 00:00:33;;;;;;;1.80;0.70;;;18.20;1.00;;;;;;5116651;28;20420;-59
2023/09/29 00:03:01;;;;;;;1.38;0.70;;;18.30;1.00;;;;;;5116014;28;20431;-58
2023/09/29 00:05:30;;;;;;;1.30;0.80;;;18.20;1.00;;;;;;5115817;28;20424;-58
2023/09/29 00:07:57;;;;;;;1.10;0.77;;;18.30;1.00;;;;;;5116519;28;20420;-59
2023/09/29 00:10:25;;;;;;;1.20;0.80;;;18.30;1.00;;;;;;5116377;28;20411;-59
2023/09/29 00:12:54;;;;;;;1.30;0.75;;;18.20;1.00;;;;;;5115396;28;20424;-58
2023/09/29 00:15:23;;;;;;;1.40;0.90;;;18.20;1.00;;;;;;5115831;28;20420;-58
2023/09/29 00:17:50;;;;;;;1.20;0.70;;;18.10;1.00;;;;;;5115681;28;20423;-59
2023/09/29 00:20:23;;;;;;;1.70;0.80;;;18.10;1.00;;;;;;5116256;28;20408;-59
2023/09/29 00:22:52;;;;;;;1.08;0.70;;;18.10;99.90;;;;;;5116425;28;20446;-59
2023/09/29 00:25:19;;;;;;;1.27;0.70;;;18.10;1.00;;;;;;5116014;28;20481;-59
2023/09/29 00:27:46;;;;;;;1.30;0.70;;;18.20;99.90;;;;;;5116293;28;20708;-59
2023/09/29 00:30:15;;;;;;;1.00;0.63;;;18.20;99.90;;;;;;5115923;28;20872;-58
2023/09/29 00:32:46;;;;;;;1.45;0.65;;;18.20;99.90;;;;;;5115270;28;20420;-58
2023/09/29 00:35:19;;;;;;;1.33;0.70;;;18.20;1.00;;;;;;5114789;28;20412;-58
2023/09/29 00:37:46;;;;;;;1.00;0.70;;;18.30;1.00;;;;;;5115350;28;20766;-59
2023/09/29 00:40:14;;;;;;;1.38;0.68;;;18.20;1.00;;;;;;5114968;28;20661;-59
2023/09/29 00:42:42;;;;;;;1.10;0.70;;;18.30;1.00;;;;;;5114491;28;20468;-58
2023/09/29 00:45:10;;;;;;;1.05;0.60;;;18.30;1.00;;;;;;5114936;28;20497;-57
2023/09/29 00:47:39;;;;;;;1.60;0.80;;;18.20;1.00;;;;;;5114468;28;20774;-57
2023/09/29 00:50:10;;;;;;;1.50;0.70;;;18.10;99.90;;;;;;5114547;28;20416;-58
2023/09/29 00:52:38;;;;;;;1.10;0.80;;;18.00;1.00;;;;;;5115152;28;20420;-57
2023/09/29 00:55:11;;;;;;;1.70;0.70;;;17.90;1.00;;;;;;5115399;28;20828;-58
2023/09/29 00:57:39;;;;;;;1.00;0.70;;;17.90;1.00;;;;;;5115378;28;20424;-58
2023/09/29 01:00:13;;;;;;;1.30;0.70;;;17.90;1.00;;;;;;5114713;28;20416;-58
2023/09/29 01:02:43;;;;;;;1.20;0.60;;;17.80;1.00;;;;;;5114041;28;20431;-58
2023/09/29 01:05:12;;;;;;;1.40;0.70;;;17.80;1.00;;;;;;5115140;28;20447;-57
2023/09/29 01:07:39;;;;;;;1.00;0.60;;;17.90;1.00;;;;;;5115042;28;20423;-58
2023/09/29 01:10:07;;;;;;;1.10;0.70;;;18.00;99.90;;;;;;5114499;28;20446;-57
2023/09/29 01:12:35;;;;;;;1.00;0.70;;;17.90;99.90;;;;;;5115516;28;20438;-57
2023/09/29 01:15:03;;;;;;;1.07;0.60;;;17.90;59.30;;;;;;5115735;28;20566;-58
2023/09/29 01:17:31;;;;;;;0.88;0.60;;;17.90;44.40;;;;;;5115387;28;20482;-58
2023/09/29 01:19:59;;;;;;;1.67;0.60;;;17.90;39.20;;;;;;5113995;28;20707;-57
2023/09/29 01:22:30;;;;;;;1.40;0.60;;;17.90;1.00;;;;;;5114710;28;20432;-58
2023/09/29 01:25:02;;;;;;;1.00;0.65;;;17.80;1.00;;;;;;5120111;27;20867;-58
2023/09/29 01:27:29;;;;;;;1.60;0.70;;;17.90;1.00;;;;;;5119752;28;20819;-58
2023/09/29 01:29:57;;;;;;;1.00;0.70;;;17.90;1.00;;;;;;5120473;27;20428;-57
2023/09/29 01:32:24;;;;;;;1.60;0.60;;;17.80;1.00;;;;;;5120369;28;20400;-58
2023/09/29 01:34:51;;;;;;;1.90;0.70;;;17.80;1.00;;;;;;5121801;28;20516;-57
2023/09/29 01:37:21;;;;;;;1.60;0.60;;;17.70;94.60;;;;;;5122273;28;20426;-58
2023/09/29 01:39:48;;;;;;;0.90;0.60;;;17.70;99.90;;;;;;5121711;28;20518;-58
2023/09/29 01:42:17;;;;;;;0.90;0.60;;;17.60;99.90;;;;;;5121899;27;20766;-58
2023/09/29 01:44:44;;;;;;;1.60;0.70;;;17.60;99.90;;;;;;5121903;28;20463;-58
2023/09/29 01:47:11;;;;;;;1.30;0.80;;;17.60;99.90;;;;;;5121872;28;20415;-57
2023/09/29 01:49:38;;;;;;;1.45;0.70;;;17.60;99.90;;;;;;5120903;28;20833;-57
2023/09/29 01:52:07;;;;;;;1.10;0.77;;;17.60;99.90;;;;;;5120917;28;20422;-57
2023/09/29 01:54:36;;;;;;;1.50;0.80;;;17.50;99.90;;;;;;5120792;28;20481;-57
2023/09/29 01:57:04;;;;;;;1.80;0.70;;;17.50;1.00;;;;;;5121076;28;20786;-58
2023/09/29 01:59:33;;;;;;;1.10;0.80;;;17.40;1.00;;;;;;5120912;27;20524;-57
2023/09/29 02:02:00;;;;;;;1.75;0.70;;;17.30;99.90;;;;;;5120883;28;20486;-58
2023/09/29 02:04:27;;;;;;;1.20;0.80;;;17.20;99.90;;;;;;5121435;28;20420;-58
2023/09/29 02:06:54;;;;;;;1.60;0.80;;;17.20;99.90;;;;;;5120278;27;20428;-57
2023/09/29 02:09:21;;;;;;;1.08;0.70;;;17.20;2.60;;;;;;5119696;27;20427;-58
2023/09/29 02:11:49;;;;;;;1.17;0.70;;;17.20;99.90;;;;;;5121313;28;20404;-58
2023/09/29 02:14:16;;;;;;;1.10;0.70;;;17.10;1.00;;;;;;5121232;27;20420;-55
2023/09/29 02:16:48;;;;;;;1.02;0.70;;;17.10;1.00;;;;;;5121863;27;20754;-57
2023/09/29 02:19:15;;;;;;;1.60;0.70;;;17.10;1.00;;;;;;5120993;28;20447;-57
2023/09/29 02:21:45;;;;;;;1.10;0.70;;;17.10;99.90;;;;;;5111408;27;20431;-57
2023/09/29 02:24:12;;;;;;;1.65;0.70;;;17.20;1.00;;;;;;5106282;27;20432;-58
2023/09/29 02:26:41;;;;;;;1.55;0.70;;;17.30;99.90;;;;;;5121603;28;20595;-58
2023/09/29 02:29:09;;;;;;;1.58;0.70;;;17.40;99.90;;;;;;5120682;27;20431;-58
2023/09/29 02:31:36;;;;;;;1.80;0.75;;;17.40;1.00;;;;;;5120756;28;20828;-58
2023/09/29 02:34:06;;;;;;;1.20;0.70;;;17.40;1.00;;;;;;5117411;28;20445;-58
2023/09/29 02:36:35;;;;;;;1.20;0.80;;;17.50;1.00;;;;;;5098237;28;20425;-58
2023/09/29 02:39:04;;;;;;;0.90;0.60;;;17.50;1.00;;;;;;5097949;28;20438;-58
2023/09/29 02:41:31;;;;;;;2.00;0.80;;;17.50;1.00;;;;;;5098047;28;20425;-58
2023/09/29 02:43:58;;;;;;;1.37;0.80;;;17.50;1.00;;;;;;5097757;28;20418;-58
2023/09/29 02:46:25;;;;;;;1.30;0.80;;;17.40;1.00;;;;;;5097810;28;20445;-59
2023/09/29 02:48:52;;;;;;;1.13;0.77;;;17.40;1.00;;;;;;5097265;27;20438;-58
2023/09/29 02:51:21;;;;;;;1.10;0.70;;;17.40;1.00;;;;;;5097692;28;20447;-58
2023/09/29 02:53:54;;;;;;;1.85;0.80;;;17.40;1.00;;;;;;5097341;28;20417;-58
2023/09/29 02:56:23;;;;;;;1.15;0.70;;;17.40;1.00;;;;;;5097418;28;20421;-58
2023/09/29 02:58:54;;;;;;;1.00;0.70;;;17.40;1.00;;;;;;5103450;27;20429;-58
2023/09/29 03:01:22;;;;;;;1.63;0.80;;;17.30;1.00;;;;;;5136364;27;20465;-57
2023/09/29 03:03:54;;;;;;;1.30;0.70;;;17.40;1.00;;;;;;5139100;27;20889;-57
2023/09/29 03:06:23;;;;;;;1.38;0.70;;;17.50;99.90;;;;;;5138252;27;20426;-58
2023/09/29 03:08:54;;;;;;;1.70;0.80;;;17.60;99.90;;;;;;5138462;27;20427;-59
2023/09/29 03:11:22;;;;;;;1.50;0.80;;;17.50;99.90;;;;;;5136992;27;20706;-58
2023/09/29 03:13:49;;;;;;;1.25;0.80;;;17.50;99.90;;;;;;5138184;27;20846;-59
2023/09/29 03:16:18;;;;;;;1.40;0.80;;;17.50;99.90;;;;;;5137262;27;20427;-58
2023/09/29 03:18:46;;;;;;;2.72;0.80;;;17.50;1.00;;;;;;5137873;27;20921;-58
2023/09/29 03:21:13;;;;;;;1.70;0.88;;;17.60;1.00;;;;;;5136699;27;20422;-57
2023/09/29 03:23:42;;;;;;;1.50;0.80;;;17.50;1.00;;;;;;5137073;27;20430;-57
2023/09/29 03:26:10;;;;;;;1.80;0.80;;;17.30;1.00;;;;;;5137555;27;20414;-56
2023/09/29 03:28:38;;;;;;;1.83;0.70;;;17.20;1.00;;;;;;5136956;27;20418;-57
2023/09/29 03:31:08;;;;;;;1.20;0.70;;;17.10;99.90;;;;;;5137625;27;20484;-57
2023/09/29 03:33:35;;;;;;;1.33;0.90;;;17.10;99.90;;;;;;5137657;27;20414;-59
2023/09/29 03:36:03;;;;;;;2.10;0.90;;;17.10;99.90;;;;;;5137526;27;20418;-59
2023/09/29 03:38:31;;;;;;;1.85;0.90;;;17.00;1.00;;;;;;5137871;27;20733;-59
2023/09/29 03:41:00;;;;;;;1.40;0.70;;;17.10;1.00;;;;;;5136093;27;20853;-59
2023/09/29 03:43:27;;;;;;;1.60;0.80;;;17.10;1.00;;;;;;5135984;27;20726;-59
2023/09/29 03:45:55;;;;;;;1.20;0.80;;;17.10;99.90;;;;;;5134100;27;20886;-60
2023/09/29 03:48:22;;;;;;;1.20;0.75;;;17.10;99.90;;;;;;5134541;27;20418;-59
2023/09/29 03:50:49;;;;;;;2.45;0.80;;;17.10;99.90;;;;;;5136725;27;20411;-59
2023/09/29 03:53:17;;;;;;;1.20;0.75;;;17.10;1.00;;;;;;5136853;27;20475;-59
2023/09/29 03:55:45;;;;;;;2.00;0.80;;;17.00;1.00;;;;;;5136002;27;20402;-59
2023/09/29 03:58:14;;;;;;;2.00;0.70;;;17.00;1.00;;;;;;5137581;27;20894;-59
2023/09/29 04:00:42;;;;;;;1.20;0.80;;;17.00;1.00;;;;;;5135644;27;20422;-57
2023/09/29 04:03:09;;;;;;;1.52;0.80;;;17.00;1.00;;;;;;5135079;27;20519;-59
2023/09/29 04:05:36;;;;;;;1.90;0.90;;;16.90;1.40;;;;;;5135188;27;20414;-59
2023/09/29 04:08:03;;;;;;;1.20;0.70;;;16.90;99.90;;;;;;5135927;27;20420;-59
2023/09/29 04:10:30;;;;;;;1.40;0.85;;;16.90;99.90;;;;;;5136099;27;20402;-59
2023/09/29 04:12:58;;;;;;;1.17;0.70;;;16.90;99.90;;;;;;5135695;27;20422;-59
2023/09/29 04:15:27;;;;;;;1.67;0.70;;;16.90;99.90;;;;;;5136299;27;20509;-59
2023/09/29 04:17:54;;;;;;;1.10;0.80;;;17.00;1.00;;;;;;5135298;27;20431;-58
2023/09/29 04:20:22;;;;;;;1.40;0.80;;;17.00;1.00;;;;;;5136312;27;20414;-58
2023/09/29 04:22:49;;;;;;;1.20;0.70;;;17.00;1.00;;;;;;5135863;27;20433;-58
2023/09/29 04:25:16;;;;;;;1.30;0.90;;;17.10;1.00;;;;;;5134786;27;20514;-58
2023/09/29 04:27:44;;;;;;;1.55;0.70;;;17.10;1.00;;;;;;5135036;27;20864;-57
2023/09/29 04:30:12;;;;;;;1.52;0.80;;;17.10;1.00;;;;;;5133646;27;20497;-57
2023/09/29 04:32:41;;;;;;;1.42;0.80;;;17.20;99.90;;;;;;5135023;27;20601;-57
2023/09/29 04:35:09;;;;;;;1.50;0.77;;;17.20;99.90;;;;;;5134688;27;20814;-57
2023/09/29 04:37:36;;;;;;;1.38;0.80;;;17.20;99.90;;;;;;5134503;27;20834;-57
2023/09/29 04:40:04;;;;;;;1.77;0.80;;;17.20;99.90;;;;;;5135529;27;20520;-58
2023/09/29 04:42:33;;;;;;;1.60;0.70;;;17.20;1.00;;;;;;5134025;27;20430;-57
2023/09/29 04:45:00;;;;;;;1.50;0.70;;;17.20;11.10;;;;;;5135736;27;20479;-57
2023/09/29 04:47:27;;;;;;;1.23;0.80;;;17.30;1.00;;;;;;5135102;27;20417;-58
2023/09/29 04:49:56;;;;;;;1.38;0.80;;;17.30;1.00;;;;;;5135626;27;20503;-58
2023/09/29 04:52:23;;;;;;;1.50;0.90;;;17.20;1.00;;;;;;5135475;27;20410;-58
2023/09/29 04:54:50;;;;;;;1.98;0.70;;;17.10;99.90;;;;;;5136272;27;20430;-58
2023/09/29 04:57:17;;;;;;;1.10;0.70;;;17.00;99.90;;;;;;5135330;27;20426;-57
2023/09/29 04:59:44;;;;;;;1.73;0.80;;;17.00;99.90;;;;;;5136388;27;20418;-56
2023/09/29 05:02:12;;;;;;;2.20;0.73;;;17.00;1.00;;;;;;5135553;27;20505;-58
2023/09/29 05:04:39;;;;;;;2.00;0.90;;;16.90;1.00;;;;;;5135350;27;20417;-57
2023/09/29 05:07:08;;;;;;;1.45;0.80;;;16.90;1.00;;;;;;5133828;27;20428;-57
2023/09/29 05:09:36;;;;;;;1.70;0.80;;;16.90;1.00;;;;;;5134421;27;20426;-57
2023/09/29 05:12:03;;;;;;;1.83;0.77;;;16.90;1.00;;;;;;5133744;27;20505;-57
2023/09/29 05:14:30;;;;;;;1.80;0.80;;;16.90;1.00;;;;;;5132399;27;20437;-58
2023/09/29 05:16:57;;;;;;;1.40;0.80;;;16.90;1.00;;;;;;5132639;27;20564;-56
2023/09/29 05:19:25;;;;;;;1.23;0.80;;;16.90;1.00;;;;;;5131169;27;20804;-55
2023/09/29 05:21:52;;;;;;;2.00;0.80;;;17.00;1.00;;;;;;5133823;28;20842;-58
2023/09/29 05:24:20;;;;;;;1.30;0.80;;;17.00;1.00;;;;;;5132055;28;20422;-57
2023/09/29 05:26:47;;;;;;;1.70;1.00;;;17.00;1.00;;;;;;5132763;28;20411;-57
2023/09/29 05:29:14;;;;;;;1.30;0.90;;;17.00;1.00;;;;;;5131250;28;20414;-57
2023/09/29 05:31:42;;;;;;;2.10;0.90;;;16.90;1.00;;;;;;5129727;28;21087;-57
2023/09/29 05:34:09;;;;;;;1.30;0.80;;;16.90;54.20;;;;;;5131966;28;20449;-59
2023/09/29 05:36:36;;;;;;;1.63;0.80;;;16.90;94.10;;;;;;5134364;28;20419;-55
2023/09/29 05:39:04;;;;;;;2.20;0.80;;;16.90;99.90;;;;;;5131951;28;20809;-59
2023/09/29 05:41:32;;;;;;;1.73;0.85;;;17.00;84.10;;;;;;5133305;28;20590;-59
2023/09/29 05:44:00;;;;;;;1.20;0.80;;;17.00;37.30;;;;;;5131803;28;20635;-59
2023/09/29 05:46:27;;;;;;;2.00;1.00;;;17.10;1.00;;;;;;5130041;28;20425;-59
2023/09/29 05:48:54;;;;;;;1.45;1.00;;;17.10;1.00;;;;;;5132235;28;20425;-59
2023/09/29 05:51:22;;;;;;;1.50;0.90;;;17.10;1.00;;;;;;5134433;28;20848;-59
2023/09/29 05:53:49;;;;;;;1.60;0.90;;;17.10;1.00;;;;;;5135363;28;20421;-59
2023/09/29 05:56:16;;;;;;;1.70;0.98;;;17.10;1.00;;;;;;5134066;28;20487;-59
2023/09/29 05:58:45;;;;;;;2.20;1.00;;;17.10;1.00;;;;;;5133497;28;20710;-58
2023/09/29 06:01:13;;;;;;;1.60;0.90;;;17.10;1.00;;;;;;5131917;28;20422;-55
2023/09/29 06:03:41;;;;;;;1.20;0.80;;;17.20;1.00;;;;;;5132021;28;20870;-59
2023/09/29 06:06:10;;;;;;;1.40;0.80;;;17.20;1.00;;;;;;5132770;28;20426;-59
2023/09/29 06:08:38;;;;;;;2.13;0.90;;;17.20;1.00;;;;;;5133654;27;20437;-58
2023/09/29 06:11:05;;;;;;;2.22;0.90;;;17.30;1.00;;;;;;5135678;27;20422;-60
2023/09/29 06:13:33;;;;;;;1.40;0.80;;;17.40;1.00;;;;;;5132925;27;20501;-59
2023/09/29 06:16:03;;;;;;;1.42;0.85;;;17.50;99.90;;;;;;5135333;27;20441;-59
2023/09/29 06:18:31;;;;;;;1.50;0.85;;;17.60;99.90;;;;;;5126330;27;20422;-59
2023/09/29 06:20:58;;;;;;;2.40;0.90;;;17.60;99.90;;;;;;5115687;27;20857;-59
2023/09/29 06:23:25;;;;;;;3.20;1.00;;;17.70;99.90;;;;;;5101285;28;20911;-59
2023/09/29 06:25:57;;;;;;;2.65;0.90;;;17.80;99.90;;;;;;5105797;28;20900;-59
2023/09/29 06:28:24;;;;;;;1.83;1.00;;;17.90;99.90;;;;;;5115650;28;20431;-59
2023/09/29 06:30:52;;;;;;;2.15;1.10;;;17.80;99.90;;;;;;5108709;28;20424;-59
2023/09/29 06:33:21;;;;;;;1.70;1.00;;;17.80;99.90;;;;;;5110916;28;20851;-59
2023/09/29 06:35:48;;;;;;;2.72;1.00;;;17.80;99.90;;;;;;5111557;28;20427;-59
2023/09/29 06:38:16;;;;;;;1.58;1.00;;;17.80;99.90;;;;;;5105878;28;20429;-59
2023/09/29 06:40:44;;;;;;;2.90;1.00;;;17.80;99.90;;;;;;5111238;28;20408;-60
2023/09/29 06:43:11;;;;;;;1.90;0.90;;;17.80;99.90;;;;;;5109975;28;20424;-59
2023/09/29 06:45:39;;;;;;;1.92;1.00;;;17.90;99.90;;;;;;5113680;28;20749;-58
2023/09/29 06:48:07;;;;;;;2.10;1.00;;;18.10;99.90;;;;;;5111834;28;20963;-58
2023/09/29 06:50:35;;;;;;;1.25;0.80;;;18.20;1.00;;;;;;5113043;28;21054;-58
2023/09/29 06:53:03;;;;;;;2.58;0.90;;;18.40;99.90;;;;;;5114699;28;20423;-58
2023/09/29 06:55:31;;;;;;;1.80;1.00;;;18.60;70.00;;;;;;5121243;27;20449;-58
2023/09/29 06:57:59;;;;;;;3.70;1.10;;;18.70;1.00;;;;;;5123706;27;20485;-59
2023/09/29 07:00:27;;;;;;;2.00;0.90;;;18.90;99.90;;;;;;5098943;28;20840;-58
2023/09/29 07:02:54;;;;;;;1.50;1.00;;;18.90;99.90;;;;;;5113788;28;20858;-59
2023/09/29 07:05:21;;;;;;;5.90;1.00;;;19.00;1.00;;;;;;5113265;28;20416;-56
2023/09/29 07:07:50;;;;;;;2.22;0.90;;;19.10;1.00;;;;;;5115077;28;20416;-54
2023/09/29 07:10:18;;;;;;;1.20;0.80;;;19.20;1.00;;;;;;5115077;28;20481;-55
2023/09/29 07:12:46;;;;;;;3.58;1.00;;;19.30;99.90;;;;;;5115221;28;20719;-56
2023/09/29 07:15:13;;;;;;;1.92;0.80;;;19.40;1.00;;;;;;5105750;28;20857;-55
2023/09/29 07:17:41;;;;;;;1.70;0.90;;;19.50;99.90;;;;;;5110854;28;20511;-54
2023/09/29 07:20:09;;;;;;;2.00;0.90;;;19.60;99.90;;;;;;5093245;28;20475;-51
2023/09/29 07:22:36;;;;;;;1.60;0.90;;;19.60;99.90;;;;;;5103653;28;20754;-51
2023/09/29 07:25:06;;;;;;;1.60;0.90;;;19.70;96.30;;;;;;5108872;28;20440;-52
2023/09/29 07:27:35;;;;;;;2.05;0.80;;;19.80;1.00;;;;;;5104478;28;20423;-55
2023/09/29 07:30:03;;;;;;;1.70;0.80;;;19.80;1.00;;;;;;5098988;28;20444;-55
2023/09/29 07:32:31;;;;;;;1.50;0.80;;;19.80;1.00;;;;;;5103852;28;20843;-55
2023/09/29 07:34:58;;;;;;;1.05;0.80;;;19.80;1.00;;;;;;5092496;28;20922;-54
2023/09/29 07:37:25;;;;;;;1.25;0.80;;;19.80;1.00;;;;;;5108389;28;20521;-53
2023/09/29 07:39:52;;;;;;;1.70;0.90;;;19.80;1.00;;;;;;5098429;28;20434;-54
2023/09/29 07:42:21;;;;;;;1.50;0.82;;;19.70;1.00;;;;;;5132511;27;20418;-55
2023/09/29 07:44:48;;;;;;;1.55;1.00;;;19.80;1.00;;;;;;5136370;27;20687;-56
2023/09/29 07:47:15;;;;;;;1.30;0.90;;;19.80;1.00;;;;;;5134688;27;20490;-51
2023/09/29 07:49:42;;;;;;;2.10;0.80;;;19.90;1.00;;;;;;5133478;27;20444;-52
2023/09/29 07:52:09;;;;;;;1.70;0.70;;;20.00;1.00;;;;;;5134779;27;20421;-51
2023/09/29 07:54:37;;;;;;;1.20;0.80;;;20.00;1.00;;;;;;5134648;27;20842;-53
2023/09/29 07:57:04;;;;;;;1.30;0.80;;;20.20;1.00;;;;;;5134703;27;20497;-53
2023/09/29 07:59:32;;;;;;;1.20;0.70;;;20.20;1.00;;;;;;5135184;27;20419;-51
2023/09/29 08:02:00;;;;;;;2.80;0.80;;;20.40;99.90;;;;;;5135790;27;20421;-52
2023/09/29 08:04:27;;;;;;;1.10;0.80;;;20.50;99.90;;;;;;5132428;27;20476;-50
2023/09/29 08:06:54;;;;;;;1.10;0.80;;;20.50;99.90;;;;;;5128525;27;20431;-52
2023/09/29 08:09:22;;;;;;;1.80;0.85;;;20.70;99.90;;;;;;5131627;27;20446;-51
2023/09/29 08:11:49;;;;;;;1.20;0.80;;;20.70;99.90;;;;;;5127922;27;20439;-50
2023/09/29 08:14:16;;;;;;;1.40;0.70;;;20.70;99.90;;;;;;5123284;27;20418;-51
2023/09/29 08:16:45;;;;;;;2.50;0.80;;;20.70;99.90;;;;;;5126484;27;20723;-52
2023/09/29 08:19:12;;;;;;;1.30;0.70;;;20.80;99.90;;;;;;5141211;27;20448;-52
2023/09/29 08:21:39;;;;;;;1.30;0.80;;;20.80;99.90;;;;;;5120628;27;20521;-52
2023/09/29 08:24:08;;;;;;;1.63;0.70;;;20.90;99.90;;;;;;5103980;28;20924;-51
2023/09/29 08:26:37;;;;;;;1.40;0.80;;;21.00;99.90;;;;;;5119385;27;20501;-53
2023/09/29 08:29:04;;;;;;;1.08;0.70;;;21.00;99.90;;;;;;5148157;27;20413;-51
2023/09/29 08:31:31;;;;;;;1.00;0.70;;;21.20;99.90;;;;;;5143170;27;20923;-50
2023/09/29 08:34:00;;;;;;;1.20;0.80;;;21.30;99.90;;;;;;5122546;27;20892;-51
2023/09/29 08:36:27;;;;;;;1.00;0.70;;;21.30;46.70;;;;;;5112709;28;20416;-50
2023/09/29 08:38:54;;;;;;;1.17;0.70;;;21.30;9.60;;;;;;5112901;27;20520;-50
2023/09/29 08:41:26;;;;;;;1.30;0.70;;;21.20;50.30;;;;;;5121208;27;20424;-49
2023/09/29 08:43:53;;;;;;;3.67;1.20;;;21.20;37.10;;;;;;5126366;27;20618;-53
2023/09/29 08:46:21;;;;;;;1.20;0.70;;;21.20;92.70;;;;;;5134476;27;20415;-53
2023/09/29 08:48:49;;;;;;;1.65;0.70;;;21.20;64.40;;;;;;5123581;27;20427;-60
2023/09/29 08:51:19;;;;;;;1.27;0.80;;;21.30;1.00;;;;;;5113655;28;20427;-56
2023/09/29 08:53:47;;;;;;;1.40;0.70;;;21.30;1.00;;;;;;5111747;28;20456;-50
2023/09/29 08:56:16;;;;;;;1.30;0.70;;;21.40;1.00;;;;;;5127522;27;20427;-52
2023/09/29 08:58:43;;;;;;;1.30;0.70;;;21.50;1.00;;;;;;5126837;27;20434;-55
2023/09/29 09:01:10;;;;;;;1.15;0.60;;;21.70;1.00;;;;;;5120854;27;20748;-52
2023/09/29 09:03:38;;;;;;;1.00;0.70;;;22.00;1.00;;;;;;5115054;27;20732;-54
2023/09/29 09:06:22;;;;;;;1.00;0.70;;;22.20;1.00;;;;;;5111098;28;20570;-55
2023/09/29 09:08:50;;;;;;;1.30;0.70;;;22.50;1.00;;;;;;5117745;27;20466;-53
2023/09/29 09:11:17;;;;;;;1.00;0.63;;;22.70;1.00;;;;;;5117924;27;20496;-55
2023/09/29 09:13:58;;;;;;;0.90;0.60;;;22.80;1.00;;;;;;5109883;28;20408;-54
2023/09/29 09:16:26;;;;;;;1.50;0.70;;;23.10;99.90;;;;;;5110741;27;21034;-52
2023/09/29 09:18:54;;;;;;;1.40;0.80;;;23.30;99.90;;;;;;5120590;27;20847;-53
2023/09/29 09:21:32;;;;;;;2.70;0.77;;;23.50;99.90;;;;;;5121844;27;20857;-55
2023/09/29 09:23:59;;;;;;;0.98;0.60;;;23.90;99.90;;;;;;5150236;27;20777;-53
2023/09/29 09:26:29;;;;;;;0.90;0.70;;;24.20;99.90;;;;;;5132525;28;20426;-52
2023/09/29 09:29:09;;;;;;;1.10;0.70;;;24.60;99.90;;;;;;5129008;28;20418;-54
2023/09/29 09:31:45;;;;;;;2.13;0.70;;;24.80;62.10;;;;;;5132948;28;20426;-53
2023/09/29 09:34:14;;;;;;;0.90;0.60;;;25.00;23.20;;;;;;5125107;28;20431;-53
2023/09/29 09:36:52;;;;;;;1.00;0.50;;;25.20;1.00;;;;;;5122126;28;20739;-55
2023/09/29 09:39:24;;;;;;;1.20;0.60;;;25.30;1.00;;;;;;5130455;28;20418;-55
2023/09/29 09:41:56;;;;;;;0.73;0.50;;;25.40;1.00;;;;;;5132556;27;20772;-53
2023/09/29 09:44:25;;;;;;;0.90;0.60;;;25.40;1.00;;;;;;5124216;27;20495;-55
2023/09/29 09:47:00;;;;;;;0.90;0.60;;;25.50;1.00;;;;;;5114869;28;20415;-54
2023/09/29 09:49:37;;;;;;;0.90;0.60;;;25.50;1.00;;;;;;5133981;27;20521;-54
2023/09/29 09:52:07;;;;;;;1.00;0.60;;;25.50;1.00;;;;;;5136906;27;20864;-53
2023/09/29 09:54:46;;;;;;;1.10;0.60;;;25.40;1.00;;;;;;5134008;27;20428;-53
2023/09/29 09:57:17;;;;;;;1.00;0.60;;;25.40;1.00;;;;;;5118102;27;20739;-55
2023/09/29 09:59:45;;;;;;;1.20;0.50;;;25.40;1.00;;;;;;5137038;27;20480;-54
2023/09/29 10:02:13;;;;;;;0.90;0.60;;;25.50;1.00;;;;;;5135900;27;20518;-53
2023/09/29 10:04:43;;;;;;;1.77;0.60;;;25.50;1.00;;;;;;5135923;27;20430;-52
2023/09/29 10:07:14;;;;;;;0.90;0.55;;;25.50;1.00;;;;;;5128208;27;20423;-52
2023/09/29 10:09:43;;;;;;;1.00;0.50;;;25.60;1.00;;;;;;5120466;27;20422;-53
2023/09/29 10:12:23;;;;;;;1.30;0.50;;;25.70;1.00;;;;;;5112872;27;20452;-51
2023/09/29 10:14:50;;;;;;;0.80;0.50;;;25.70;1.00;;;;;;5114082;27;20441;-54
2023/09/29 10:17:18;;;;;;;0.70;0.60;;;25.80;1.00;;;;;;5131463;27;20418;-55
2023/09/29 10:19:48;;;;;;;0.80;0.60;;;25.70;1.00;;;;;;5120798;27;20424;-53
2023/09/29 10:22:24;;;;;;;1.10;0.70;;;25.60;1.00;;;;;;5111728;28;20420;-52
2023/09/29 10:24:56;;;;;;;0.90;0.70;;;25.50;1.00;;;;;;5130142;27;20557;-55
2023/09/29 10:27:33;;;;;;;0.90;0.60;;;25.30;1.00;;;;;;5126892;27;20424;-56
2023/09/29 10:30:16;;;;;;;0.93;0.65;;;25.30;1.00;;;;;;5134795;27;20426;-56
2023/09/29 10:32:47;;;;;;;0.93;0.60;;;25.40;1.00;;;;;;5135888;27;20418;-55
2023/09/29 10:35:19;;;;;;;1.20;0.60;;;25.50;1.00;;;;;;5135760;27;20403;-55
2023/09/29 10:37:54;;;;;;;0.90;0.60;;;25.50;1.00;;;;;;5131946;27;20887;-54
2023/09/29 10:40:25;;;;;;;0.80;0.50;;;25.50;1.00;;;;;;5130589;27;20443;-56
2023/09/29 10:42:56;;;;;;;0.90;0.60;;;25.50;1.00;;;;;;5130892;27;20430;-56
2023/09/29 10:45:30;;;;;;;1.23;0.70;;;25.70;1.00;;;;;;5135667;27;20430;-55
2023/09/29 10:48:07;;;;;;;0.90;0.60;;;26.10;1.00;;;;;;5133531;27;20422;-55
2023/09/29 10:50:42;;;;;;;1.40;0.60;;;26.40;1.00;;;;;;5128183;27;20426;-54
2023/09/29 10:53:12;;;;;;;1.50;0.80;;;26.50;1.00;;;;;;5114958;27;20410;-56
2023/09/29 10:55:43;;;;;;;0.90;0.60;;;26.70;1.00;;;;;;5130822;27;20431;-54
2023/09/29 10:58:12;;;;;;;1.00;0.60;;;26.80;1.00;;;;;;5133095;27;20428;-54
2023/09/29 11:00:46;;;;;;;0.95;0.60;;;27.00;1.00;;;;;;5133003;27;20744;-56
2023/09/29 11:03:14;;;;;;;1.20;0.60;;;27.20;1.00;;;;;;5133758;27;20888;-53
2023/09/29 11:05:52;;;;;;;1.30;0.60;;;27.20;1.00;;;;;;5134272;27;20448;-56
2023/09/29 11:08:21;;;;;;;1.40;0.60;;;27.50;1.00;;;;;;5133240;27;20442;-54
2023/09/29 11:10:59;;;;;;;1.50;0.60;;;27.50;1.00;;;;;;5135836;27;20829;-52
2023/09/29 11:13:27;;;;;;;0.90;0.60;;;27.60;1.00;;;;;;5134036;27;20425;-57
2023/09/29 11:15:55;;;;;;;0.90;0.60;;;27.80;1.00;;;;;;5125801;27;20496;-55
2023/09/29 11:18:30;;;;;;;0.90;0.70;;;27.90;1.00;;;;;;5113303;28;20814;-55
2023/09/29 11:20:59;;;;;;;1.30;0.70;;;27.90;1.00;;;;;;5121692;27;20422;-55
2023/09/29 11:23:38;;;;;;;1.20;0.70;;;27.90;1.00;;;;;;5126478;27;20434;-52
2023/09/29 11:26:09;;;;;;;1.50;0.60;;;28.20;1.00;;;;;;5118099;27;20483;-57
2023/09/29 11:28:41;;;;;;;1.70;0.70;;;28.10;1.00;;;;;;5134729;27;20415;-56
2023/09/29 11:31:11;;;;;;;1.00;0.70;;;28.10;1.00;;;;;;5133468;27;20453;-57
2023/09/29 11:33:39;;;;;;;1.10;0.70;;;27.90;1.00;;;;;;5126626;27;20819;-56
2023/09/29 11:36:17;;;;;;;1.00;0.70;;;27.90;1.00;;;;;;5118501;27;20419;-56
2023/09/29 11:38:46;;;;;;;1.00;0.70;;;28.20;1.00;;;;;;5130999;27;20434;-58
2023/09/29 11:41:15;;;;;;;1.30;0.70;;;28.30;1.00;;;;;;5131981;27;20418;-56
2023/09/29 11:43:43;;;;;;;1.00;0.80;;;28.10;1.00;;;;;;5113994;28;20855;-56
2023/09/29 11:46:10;;;;;;;1.00;0.70;;;28.10;1.00;;;;;;5118092;27;20546;-54
2023/09/29 11:48:38;;;;;;;1.00;0.80;;;28.20;1.00;;;;;;5114045;28;20416;-56
2023/09/29 11:51:05;;;;;;;1.05;0.60;;;28.20;1.00;;;;;;5129634;27;20462;-56
2023/09/29 11:53:32;;;;;;;1.40;0.70;;;28.40;1.00;;;;;;5121485;27;20522;-56
2023/09/29 11:56:01;;;;;;;2.10;0.70;;;28.10;1.00;;;;;;5123305;27;20539;-54
2023/09/29 11:58:29;;;;;;;1.30;0.90;;;28.00;1.00;;;;;;5114575;27;20734;-55
2023/09/29 12:00:58;;;;;;;1.92;0.80;;;28.00;1.00;;;;;;5133346;27;20442;-55
2023/09/29 12:03:27;;;;;;;3.20;0.63;;;27.90;1.00;;;;;;5129948;27;20425;-55
2023/09/29 12:05:56;;;;;;;1.50;0.70;;;27.90;1.00;;;;;;5123524;27;20439;-55
2023/09/29 12:08:23;;;;;;;1.10;0.80;;;28.00;1.00;;;;;;5121042;27;20699;-58
2023/09/29 12:10:50;;;;;;;0.95;0.70;;;28.10;1.00;;;;;;5129368;27;20419;-55
2023/09/29 12:13:19;;;;;;;1.10;0.70;;;28.20;1.00;;;;;;5108881;28;20975;-56
2023/09/29 12:15:46;;;;;;;0.80;0.60;;;28.30;1.00;;;;;;5121204;27;20418;-56
2023/09/29 12:18:14;;;;;;;1.05;0.70;;;28.20;1.00;;;;;;5112167;28;20873;-57
2023/09/29 12:20:42;;;;;;;1.10;0.60;;;28.20;1.00;;;;;;5133305;27;20422;-57
2023/09/29 12:23:09;;;;;;;1.33;0.70;;;28.40;1.00;;;;;;5133837;27;20851;-58
2023/09/29 12:25:37;;;;;;;1.10;0.80;;;28.50;1.00;;;;;;5121726;27;20431;-57
2023/09/29 12:28:05;;;;;;;1.30;0.75;;;28.50;1.00;;;;;;5123214;27;20424;-57
2023/09/29 12:30:34;;;;;;;1.30;0.60;;;28.40;1.00;;;;;;5131756;27;20418;-57
2023/09/29 12:33:01;;;;;;;1.40;0.70;;;28.40;1.00;;;;;;5133366;27;20501;-54
2023/09/29 12:35:29;;;;;;;1.40;0.70;;;28.30;1.00;;;;;;5130617;27;20458;-56
2023/09/29 12:37:56;;;;;;;1.00;0.70;;;28.20;1.00;;;;;;5134807;27;20415;-56
2023/09/29 12:40:23;;;;;;;1.00;0.73;;;28.10;1.00;;;;;;5134698;27;20422;-57
2023/09/29 12:42:51;;;;;;;0.90;0.60;;;27.90;1.00;;;;;;5134222;27;20551;-56
2023/09/29 12:45:21;;;;;;;1.80;0.70;;;28.00;1.00;;;;;;5131184;27;20423;-56
2023/09/29 12:47:51;;;;;;;0.98;0.60;;;28.10;1.00;;;;;;5134299;27;20472;-57
2023/09/29 12:50:19;;;;;;;0.90;0.50;;;28.10;1.00;;;;;;5134642;27;20410;-56
2023/09/29 12:52:46;;;;;;;0.80;0.60;;;28.20;1.00;;;;;;5132716;27;20441;-56
2023/09/29 12:55:15;;;;;;;1.50;0.60;;;28.20;1.00;;;;;;5134154;27;20429;-56
2023/09/29 12:57:43;;;;;;;0.90;0.50;;;28.20;1.00;;;;;;5131781;27;20417;-57
2023/09/29 13:00:18;;;;;;;0.70;0.60;;;28.30;1.00;;;;;;5130543;27;20422;-56